Time;durP1;ratioP1;P1;durP2;ratioP2;P2;SDS_P1;SDS_P2;PMS_P1;PMS_P2;Temp;Humidity;BMP_temperature;BMP_pressure;BME280_temperature;BME280_humidity;BME280_pressure;Samples;Min_cycle;Max_cycle;Signal;HPM_P1;HPM_P2
2021/10/05 00:00:16;;;;;;;8.95;5.45;;;;;;;13.36;95.25;100987.97;5014067;28;20050;-84
2021/10/05 00:02:43;;;;;;;8.82;4.82;;;;;;;13.41;94.74;100983.25;4997967;28;20480;-83
2021/10/05 00:05:11;;;;;;;10.55;6.30;;;;;;;13.37;95.08;100973.84;5005652;28;20052;-87
2021/10/05 00:07:38;;;;;;;14.95;5.40;;;;;;;13.42;95.16;100981.47;5014323;28;20400;-83
2021/10/05 00:10:07;;;;;;;8.82;4.95;;;;;;;13.48;94.81;100981.06;5009769;28;20048;-83
2021/10/05 00:12:34;;;;;;;12.38;4.65;;;;;;;13.46;94.61;100968.88;5014892;28;20042;-85
2021/10/05 00:15:04;;;;;;;8.75;5.30;;;;;;;13.56;93.45;100957.59;5004141;28;20056;-82
2021/10/05 00:17:31;;;;;;;9.13;5.32;;;;;;;13.39;94.52;100948.13;5019368;28;20041;-83
2021/10/05 00:19:59;;;;;;;11.02;5.32;;;;;;;13.48;93.40;100951.97;5009336;28;20198;-82
2021/10/05 00:22:27;;;;;;;10.75;4.63;;;;;;;13.43;92.96;100960.22;4995739;28;20050;-82
2021/10/05 00:24:54;;;;;;;7.43;4.60;;;;;;;13.38;93.01;100948.25;5008700;28;20048;-84
2021/10/05 00:27:21;;;;;;;9.63;5.15;;;;;;;13.36;93.85;100956.25;5018527;28;20392;-82
2021/10/05 00:29:49;;;;;;;13.75;4.72;;;;;;;13.40;91.97;100952.47;5008348;28;20045;-80
2021/10/05 00:32:16;;;;;;;8.52;4.80;;;;;;;13.49;92.57;100958.94;5014094;28;20038;-80
2021/10/05 00:34:43;;;;;;;13.82;4.55;;;;;;;13.51;90.62;100956.19;5006831;28;20053;-85
2021/10/05 00:37:11;;;;;;;9.35;3.92;;;;;;;13.46;90.07;100961.78;5000840;28;20058;-82
2021/10/05 00:39:38;;;;;;;7.57;4.10;;;;;;;13.64;87.61;100957.94;5005449;28;20111;-83
2021/10/05 00:42:07;;;;;;;14.00;4.40;;;;;;;13.50;88.33;100954.50;5015275;28;20037;-83
2021/10/05 00:44:37;;;;;;;7.60;4.03;;;;;;;13.54;87.95;100946.25;4992324;28;20064;-81
2021/10/05 00:47:08;;;;;;;9.45;4.15;;;;;;;13.52;87.43;100948.19;5020312;28;20076;-83
2021/10/05 00:49:36;;;;;;;9.48;3.55;;;;;;;13.48;87.68;100945.84;5004985;28;20113;-84
2021/10/05 00:52:05;;;;;;;7.72;3.83;;;;;;;13.44;88.39;100945.19;5034140;28;20105;-86
2021/10/05 00:54:35;;;;;;;10.90;3.67;;;;;;;13.39;87.88;100947.28;5012801;28;20049;-83
2021/10/05 00:57:03;;;;;;;8.27;4.00;;;;;;;13.52;89.53;100949.97;4990169;28;20504;-82
2021/10/05 00:59:31;;;;;;;11.77;3.70;;;;;;;13.50;91.12;100934.19;4994282;28;20053;-81
2021/10/05 01:02:06;;;;;;;8.50;4.38;;;;;;;13.42;91.75;100933.88;5007362;28;20359;-82
2021/10/05 01:04:33;;;;;;;8.70;4.50;;;;;;;13.54;92.89;100930.41;5000425;28;20424;-83
2021/10/05 01:07:04;;;;;;;9.05;4.55;;;;;;;13.62;90.86;100929.91;5010721;28;20068;-83
2021/10/05 01:09:32;;;;;;;13.32;3.72;;;;;;;13.73;87.53;100921.22;5005797;28;20038;-82
2021/10/05 01:12:00;;;;;;;8.57;4.13;;;;;;;13.70;87.75;100911.72;4992438;28;20531;-82
2021/10/05 01:14:27;;;;;;;8.85;3.60;;;;;;;13.65;88.13;100895.31;5008085;28;20675;-81
2021/10/05 01:16:56;;;;;;;6.72;3.35;;;;;;;13.62;87.91;100904.28;4991389;28;20080;-87
2021/10/05 01:19:24;;;;;;;8.82;3.25;;;;;;;13.51;88.93;100905.94;4998640;28;20646;-82
2021/10/05 01:21:51;;;;;;;8.25;3.75;;;;;;;13.43;89.54;100907.31;4992365;28;20038;-81
2021/10/05 01:24:21;;;;;;;7.85;3.58;;;;;;;13.40;88.77;100894.28;5006218;28;20061;-81
2021/10/05 01:26:49;;;;;;;8.35;3.30;;;;;;;13.43;88.42;100880.03;4996252;28;20075;-82
2021/10/05 01:29:18;;;;;;;7.47;3.03;;;;;;;13.45;88.69;100871.97;5009810;28;20045;-88
2021/10/05 01:31:48;;;;;;;10.50;3.10;;;;;;;13.44;88.32;100860.56;5009044;28;20038;-81
2021/10/05 01:34:17;;;;;;;7.68;3.45;;;;;;;13.50;87.73;100864.56;5004933;28;20049;-82
2021/10/05 01:36:51;;;;;;;8.77;2.65;;;;;;;13.58;86.72;100865.75;4995155;28;20417;-81
2021/10/05 01:39:32;;;;;;;11.27;3.10;;;;;;;13.52;86.99;100863.53;5009504;28;20057;-83
2021/10/05 01:42:08;;;;;;;7.80;3.75;;;;;;;13.51;86.67;100861.84;5016796;28;20038;-82
2021/10/05 01:44:36;;;;;;;10.40;3.17;;;;;;;13.43;87.49;100864.16;5006757;28;20427;-81
2021/10/05 01:47:05;;;;;;;10.95;2.40;;;;;;;13.33;88.31;100861.28;5007750;28;20058;-83
2021/10/05 01:49:34;;;;;;;11.55;3.42;;;;;;;13.60;86.00;100858.59;4987353;28;20045;-84
2021/10/05 01:52:02;;;;;;;9.07;2.47;;;;;;;13.41;87.14;100860.75;5010014;28;20060;-84
2021/10/05 01:54:30;;;;;;;9.15;2.70;;;;;;;13.46;86.35;100860.44;4992769;28;20513;-80
2021/10/05 01:56:57;;;;;;;5.93;2.35;;;;;;;13.51;85.86;100863.63;4991463;28;20045;-82
2021/10/05 01:59:24;;;;;;;7.78;2.75;;;;;;;13.32;87.90;100864.84;5004778;28;20060;-80
2021/10/05 02:01:52;;;;;;;12.32;2.38;;;;;;;13.38;87.60;100860.97;4994587;28;20054;-83
2021/10/05 02:04:19;;;;;;;9.80;2.88;;;;;;;13.27;88.48;100861.66;5003593;28;20058;-82
2021/10/05 02:06:47;;;;;;;8.77;3.00;;;;;;;13.33;87.56;100855.16;5009368;28;20520;-79
2021/10/05 02:09:14;;;;;;;9.90;2.90;;;;;;;13.35;87.61;100858.53;5002750;28;20057;-84
2021/10/05 02:11:42;;;;;;;9.35;2.75;;;;;;;13.37;87.31;100846.03;4992719;28;20404;-81
2021/10/05 02:14:09;;;;;;;9.38;2.60;;;;;;;13.33;88.59;100844.56;4992793;28;20543;-81
2021/10/05 02:16:36;;;;;;;7.68;2.58;;;;;;;13.47;87.41;100847.13;5014460;28;20045;-82
2021/10/05 02:19:05;;;;;;;13.65;3.00;;;;;;;13.41;87.46;100843.09;5005381;28;20045;-85
2021/10/05 02:21:33;;;;;;;7.72;2.25;;;;;;;13.50;86.13;100836.31;5014996;28;20393;-82
2021/10/05 02:26:50;;;;;;;;;;;;;;;13.46;86.04;100834.00;4994496;28;20068;-82
2021/10/05 02:29:19;;;;;;;6.88;1.98;;;;;;;13.39;86.82;100830.94;4991813;28;19925;-81
2021/10/05 02:31:46;;;;;;;8.68;2.85;;;;;;;13.28;87.94;100828.13;5000553;28;20457;-81
2021/10/05 02:34:14;;;;;;;11.25;3.00;;;;;;;13.29;87.67;100829.88;5009852;28;20053;-88
2021/10/05 02:36:42;;;;;;;9.48;3.20;;;;;;;13.38;87.12;100822.16;4998627;28;20048;-81
2021/10/05 02:39:10;;;;;;;12.57;2.15;;;;;;;13.23;89.14;100817.88;5008335;28;20053;-87
2021/10/05 02:41:37;;;;;;;9.60;2.58;;;;;;;13.40;86.85;100820.25;5010384;28;20358;-82
2021/10/05 02:44:05;;;;;;;9.45;2.33;;;;;;;13.38;86.63;100819.50;5007542;28;20052;-88
2021/10/05 02:46:32;;;;;;;9.50;2.47;;;;;;;13.37;87.38;100809.88;4998033;28;20052;-81
2021/10/05 02:49:00;;;;;;;11.35;2.00;;;;;;;13.41;86.27;100800.78;5010904;28;20056;-85
2021/10/05 02:51:27;;;;;;;5.50;2.13;;;;;;;13.38;86.66;100800.16;4994328;28;20054;-82
2021/10/05 02:53:54;;;;;;;8.57;1.90;;;;;;;13.31;87.15;100797.06;5012429;28;20033;-81
2021/10/05 02:56:22;;;;;;;6.38;2.25;;;;;;;13.29;87.53;100791.03;5010049;28;20060;-81
2021/10/05 02:58:49;;;;;;;11.90;2.30;;;;;;;13.21;88.00;100776.63;5009100;28;20068;-86
2021/10/05 03:01:16;;;;;;;12.75;2.30;;;;;;;13.12;88.62;100773.63;5013066;28;20054;-82
2021/10/05 03:03:44;;;;;;;7.15;2.45;;;;;;;13.16;88.74;100767.19;5007517;28;20117;-89
2021/10/05 03:06:12;;;;;;;8.88;2.63;;;;;;;13.24;88.53;100771.13;5011511;28;20121;-88
2021/10/05 03:08:42;;;;;;;8.55;2.42;;;;;;;13.17;88.84;100765.41;5020088;28;20080;-84
2021/10/05 03:11:10;;;;;;;11.77;2.10;;;;;;;13.17;88.52;100766.25;5011565;28;20132;-87
2021/10/05 03:13:38;;;;;;;12.20;2.35;;;;;;;13.06;90.20;100755.56;5007681;28;20142;-86
2021/10/05 03:16:06;;;;;;;12.70;3.47;;;;;;;13.08;89.91;100755.44;5019775;28;20133;-85
2021/10/05 03:18:34;;;;;;;9.13;2.28;;;;;;;13.10;89.98;100746.47;5021718;28;20058;-84
2021/10/05 03:21:02;;;;;;;11.20;2.53;;;;;;;13.06;89.91;100738.84;5014661;28;20061;-82
2021/10/05 03:23:30;;;;;;;8.50;2.55;;;;;;;13.08;89.68;100729.00;4995262;28;20397;-84
2021/10/05 03:25:57;;;;;;;9.75;1.73;;;;;;;13.03;89.72;100724.03;5012910;28;20036;-84
2021/10/05 03:28:24;;;;;;;12.13;1.90;;;;;;;13.07;88.82;100722.88;5014421;28;20056;-80
2021/10/05 03:30:52;;;;;;;5.57;1.75;;;;;;;13.01;89.60;100714.50;4995061;28;20046;-82
2021/10/05 03:33:19;;;;;;;9.15;2.40;;;;;;;13.10;89.40;100716.53;5008345;28;20056;-80
2021/10/05 03:35:47;;;;;;;10.23;1.98;;;;;;;13.06;89.43;100709.78;4993776;28;20046;-84
2021/10/05 03:38:14;;;;;;;6.65;2.25;;;;;;;13.06;89.61;100697.41;5009095;28;20072;-85
2021/10/05 03:40:41;;;;;;;11.07;2.67;;;;;;;13.16;88.76;100697.63;4991857;28;20061;-81
2021/10/05 03:43:09;;;;;;;16.00;2.35;;;;;;;13.06;89.59;100702.69;5011907;28;20053;-88
2021/10/05 03:45:36;;;;;;;11.43;2.33;;;;;;;13.02;89.91;100703.84;4997136;28;20056;-81
2021/10/05 03:48:04;;;;;;;9.20;2.28;;;;;;;13.06;90.03;100699.22;4993817;28;20099;-89
2021/10/05 03:50:31;;;;;;;10.20;2.42;;;;;;;12.97;90.22;100683.94;4991508;28;20397;-84
2021/10/05 03:52:59;;;;;;;8.65;2.33;;;;;;;12.95;89.50;100684.06;5004539;28;20046;-82
2021/10/05 03:55:26;;;;;;;8.75;2.60;;;;;;;12.89;90.09;100676.56;5005784;28;20054;-81
2021/10/05 03:57:53;;;;;;;7.57;2.00;;;;;;;12.84;90.73;100670.75;4992107;28;20053;-83
2021/10/05 04:00:21;;;;;;;6.65;2.10;;;;;;;12.84;90.63;100668.09;4988265;28;20526;-85
2021/10/05 04:02:48;;;;;;;11.30;2.20;;;;;;;12.84;90.84;100670.75;5011744;28;20406;-81
2021/10/05 04:05:16;;;;;;;7.75;1.98;;;;;;;12.80;91.50;100666.63;5006935;28;20053;-84
2021/10/05 04:07:43;;;;;;;6.20;1.98;;;;;;;12.72;92.67;100656.56;4996315;28;20062;-83
2021/10/05 04:10:11;;;;;;;6.78;1.90;;;;;;;12.79;92.44;100656.97;4991855;28;20042;-82
2021/10/05 04:12:39;;;;;;;8.60;1.80;;;;;;;12.73;92.63;100655.59;4995516;28;20056;-82
2021/10/05 04:15:06;;;;;;;5.25;2.17;;;;;;;12.68;93.90;100642.72;4990625;28;20042;-87
2021/10/05 04:17:33;;;;;;;5.78;1.70;;;;;;;12.45;97.28;100637.28;4992148;28;20050;-87
2021/10/05 04:20:01;;;;;;;10.45;2.38;;;;;;;12.32;99.64;100630.16;5012628;28;20052;-81
2021/10/05 04:22:28;;;;;;;10.05;2.05;;;;;;;12.25;100.00;100623.63;5013909;28;20065;-82
2021/10/05 04:24:56;;;;;;;11.18;2.40;;;;;;;12.29;100.00;100614.56;4973108;28;20485;-82
2021/10/05 04:27:23;;;;;;;7.75;2.35;;;;;;;12.30;100.00;100608.31;5002882;28;20038;-82
2021/10/05 04:29:51;;;;;;;7.97;2.75;;;;;;;12.31;100.00;100607.38;4991030;28;20042;-81
2021/10/05 04:32:19;;;;;;;10.95;2.67;;;;;;;12.34;100.00;100603.69;5013575;28;20068;-81
2021/10/05 04:34:48;;;;;;;8.05;2.88;;;;;;;12.42;100.00;100607.47;5007443;28;20548;-83
2021/10/05 04:37:16;;;;;;;10.60;2.72;;;;;;;12.40;100.00;100606.75;5017637;28;20064;-81
2021/10/05 04:39:43;;;;;;;8.32;2.30;;;;;;;12.38;100.00;100595.47;5007002;28;20053;-83
2021/10/05 04:42:11;;;;;;;11.13;3.00;;;;;;;12.35;100.00;100593.03;5010781;28;20038;-85
2021/10/05 04:44:41;;;;;;;8.98;2.47;;;;;;;12.32;100.00;100587.09;4991355;28;20052;-83
2021/10/05 04:47:12;;;;;;;7.80;2.90;;;;;;;12.28;100.00;100586.44;5020668;28;20038;-87
2021/10/05 04:49:43;;;;;;;13.57;2.80;;;;;;;12.18;100.00;100576.59;5009262;28;20144;-84
2021/10/05 04:52:11;;;;;;;12.60;3.28;;;;;;;12.23;100.00;100578.00;5018003;28;20041;-86
2021/10/05 04:54:41;;;;;;;9.63;3.42;;;;;;;12.23;100.00;100571.88;5014132;28;20056;-85
2021/10/05 04:57:09;;;;;;;12.27;3.25;;;;;;;12.19;100.00;100571.22;4999386;28;20042;-87
2021/10/05 04:59:36;;;;;;;6.30;2.53;;;;;;;12.13;100.00;100567.22;4995815;28;20524;-87
2021/10/05 05:02:10;;;;;;;9.07;3.00;;;;;;;12.09;100.00;100554.31;5020622;28;20086;-90
2021/10/05 05:04:38;;;;;;;8.50;3.17;;;;;;;12.06;100.00;100551.88;4993523;28;20384;-86
2021/10/05 05:07:31;;;;;;;8.73;2.70;;;;;;;12.11;100.00;100555.91;5007346;28;20058;-86
2021/10/05 05:10:00;;;;;;;7.32;3.28;;;;;;;12.06;100.00;100552.72;4992654;28;20764;-79
2021/10/05 05:12:29;;;;;;;10.52;2.72;;;;;;;12.05;100.00;100543.13;4998994;28;20042;-81
2021/10/05 05:14:57;;;;;;;9.93;3.13;;;;;;;11.97;100.00;100558.59;5009601;28;20129;-83
2021/10/05 05:17:24;;;;;;;9.02;3.55;;;;;;;12.01;100.00;100544.25;5015568;28;20504;-83
2021/10/05 05:19:52;;;;;;;10.98;3.85;;;;;;;12.07;100.00;100537.75;5011906;28;20370;-84
2021/10/05 05:22:21;;;;;;;15.85;4.20;;;;;;;12.08;100.00;100542.91;4995634;28;20042;-81
2021/10/05 05:24:50;;;;;;;10.80;3.95;;;;;;;11.99;100.00;100530.34;4991773;28;20042;-83
2021/10/05 05:27:18;;;;;;;8.32;3.90;;;;;;;11.91;100.00;100517.66;4997992;28;20030;-81
2021/10/05 05:29:46;;;;;;;5.88;3.33;;;;;;;11.99;100.00;100519.78;4988960;28;20148;-81
2021/10/05 05:32:13;;;;;;;5.13;3.30;;;;;;;11.88;100.00;100515.19;5011232;28;20316;-84
2021/10/05 05:34:42;;;;;;;11.90;3.38;;;;;;;11.97;100.00;100516.38;5008086;28;20061;-83
2021/10/05 05:37:11;;;;;;;11.00;3.42;;;;;;;11.95;100.00;100510.38;4990630;28;20366;-82
2021/10/05 05:40:04;;;;;;;10.13;4.10;;;;;;;11.93;100.00;100506.13;5005167;28;20052;-80
2021/10/05 05:42:32;;;;;;;9.60;4.13;;;;;;;11.94;100.00;100508.69;5019151;28;20056;-82
2021/10/05 05:45:00;;;;;;;10.45;4.43;;;;;;;11.91;100.00;100511.53;5006917;28;20126;-81
2021/10/05 05:47:30;;;;;;;12.15;3.67;;;;;;;12.04;100.00;100499.22;5015723;28;20392;-82
2021/10/05 05:49:59;;;;;;;12.80;3.83;;;;;;;11.95;100.00;100502.47;5007506;28;20060;-81
2021/10/05 05:52:27;;;;;;;8.77;3.70;;;;;;;11.93;100.00;100495.59;5014077;28;20041;-81
2021/10/05 05:54:55;;;;;;;12.65;4.40;;;;;;;12.02;100.00;100494.97;4997539;28;20061;-87
2021/10/05 05:57:23;;;;;;;6.68;3.53;;;;;;;12.04;100.00;100498.38;5024801;28;20464;-82
2021/10/05 05:59:50;;;;;;;8.88;4.45;;;;;;;11.91;100.00;100493.06;5001743;28;20515;-83
2021/10/05 06:02:17;;;;;;;11.82;4.95;;;;;;;12.08;100.00;100486.66;5012656;28;20050;-86
2021/10/05 06:04:45;;;;;;;12.45;4.60;;;;;;;12.11;100.00;100494.34;4997196;28;20056;-83
2021/10/05 06:07:13;;;;;;;10.30;4.10;;;;;;;12.12;100.00;100486.34;5022075;28;20061;-83
2021/10/05 06:09:44;;;;;;;11.75;5.35;;;;;;;12.15;100.00;100475.56;5021253;28;20136;-81
2021/10/05 06:12:16;;;;;;;12.02;5.55;;;;;;;12.19;100.00;100462.19;5004542;28;20427;-82
2021/10/05 06:14:44;;;;;;;12.25;4.75;;;;;;;12.28;100.00;100458.91;5002077;28;20053;-82
2021/10/05 06:17:12;;;;;;;11.48;4.80;;;;;;;12.42;100.00;100453.50;5022615;28;20049;-81
2021/10/05 06:19:39;;;;;;;10.85;5.53;;;;;;;12.42;100.00;100446.44;5015517;28;20052;-82
2021/10/05 06:22:07;;;;;;;10.88;4.93;;;;;;;12.44;100.00;100443.72;5024719;28;20051;-85
2021/10/05 06:24:34;;;;;;;11.07;5.25;;;;;;;12.45;100.00;100447.19;5008432;28;20503;-83
2021/10/05 06:27:01;;;;;;;12.93;5.15;;;;;;;12.54;100.00;100444.75;5031437;28;20077;-83
2021/10/05 06:29:29;;;;;;;12.30;5.32;;;;;;;12.58;100.00;100443.59;5015517;28;20064;-78
2021/10/05 06:31:56;;;;;;;15.35;5.65;;;;;;;12.52;100.00;100441.38;5004649;28;20058;-82
2021/10/05 06:34:24;;;;;;;9.40;5.20;;;;;;;12.53;100.00;100439.59;5015820;28;20034;-83
2021/10/05 06:36:51;;;;;;;17.05;6.35;;;;;;;12.65;100.00;100442.22;5019462;28;20030;-81
2021/10/05 06:39:18;;;;;;;10.02;6.03;;;;;;;12.66;100.00;100437.78;4995438;28;20054;-83
2021/10/05 06:41:46;;;;;;;12.10;5.85;;;;;;;12.64;100.00;100435.22;5000471;28;20068;-83
2021/10/05 06:44:13;;;;;;;12.80;5.50;;;;;;;12.80;100.00;100429.72;5017461;28;20045;-83
2021/10/05 06:46:41;;;;;;;16.58;6.35;;;;;;;12.75;100.00;100418.63;5004381;28;20140;-82
2021/10/05 06:49:08;;;;;;;13.80;5.70;;;;;;;12.85;100.00;100418.81;5006391;28;20129;-84
2021/10/05 06:51:35;;;;;;;15.82;6.25;;;;;;;12.83;100.00;100413.66;5008578;28;20041;-83
2021/10/05 06:54:04;;;;;;;14.48;6.90;;;;;;;12.86;100.00;100413.41;5022877;28;20033;-86
2021/10/05 06:56:32;;;;;;;12.27;7.50;;;;;;;12.87;100.00;100401.03;4989455;28;20124;-80
2021/10/05 06:58:59;;;;;;;13.50;7.07;;;;;;;12.83;100.00;100400.44;5020203;28;20469;-85
2021/10/05 07:01:27;;;;;;;15.57;7.03;;;;;;;12.89;100.00;100392.06;5020111;28;20056;-82
2021/10/05 07:03:54;;;;;;;16.02;7.25;;;;;;;12.96;100.00;100391.59;5014830;28;20060;-80
2021/10/05 07:06:22;;;;;;;12.27;6.63;;;;;;;12.96;100.00;100387.16;5015553;28;20058;-83
2021/10/05 07:08:49;;;;;;;21.42;8.07;;;;;;;12.96;100.00;100376.59;5002110;28;20050;-88
2021/10/05 07:11:18;;;;;;;21.20;7.80;;;;;;;12.91;100.00;100368.16;5007421;28;20061;-81
2021/10/05 07:13:45;;;;;;;16.55;8.27;;;;;;;13.00;100.00;100361.38;5022809;28;20113;-82
2021/10/05 07:16:13;;;;;;;17.98;8.43;;;;;;;13.00;100.00;100356.09;5018265;28;20026;-82
2021/10/05 07:18:40;;;;;;;14.10;8.20;;;;;;;13.01;100.00;100357.75;4982971;28;20146;-83
2021/10/05 07:21:07;;;;;;;11.70;8.63;;;;;;;13.02;100.00;100346.25;4995143;28;20052;-83
2021/10/05 07:23:35;;;;;;;14.55;8.23;;;;;;;13.04;100.00;100339.03;5014760;28;20309;-81
2021/10/05 07:26:14;;;;;;;20.52;8.50;;;;;;;13.08;100.00;100336.06;5018980;28;20052;-83
2021/10/05 07:28:41;;;;;;;19.58;8.80;;;;;;;13.09;100.00;100323.69;5018689;28;20050;-83
2021/10/05 07:31:08;;;;;;;17.98;9.00;;;;;;;13.35;100.00;100319.97;5015149;28;20449;-83
2021/10/05 07:33:43;;;;;;;17.27;8.43;;;;;;;13.53;100.00;100323.03;5016977;28;20050;-86
2021/10/05 07:36:11;;;;;;;14.50;9.13;;;;;;;13.54;100.00;100321.22;4992764;28;20052;-82
2021/10/05 07:38:39;;;;;;;15.73;8.80;;;;;;;13.49;100.00;100313.66;4997325;28;20199;-81
2021/10/05 07:41:06;;;;;;;19.67;10.52;;;;;;;13.50;100.00;100310.03;4992139;28;20072;-83
2021/10/05 07:43:34;;;;;;;13.77;9.68;;;;;;;13.45;100.00;100306.91;4988477;28;20053;-80
2021/10/05 07:46:02;;;;;;;12.32;9.68;;;;;;;13.33;100.00;100302.56;4999596;28;20046;-81
2021/10/05 07:48:29;;;;;;;19.20;11.00;;;;;;;13.36;100.00;100297.03;5017396;28;20164;-79
2021/10/05 07:50:57;;;;;;;16.25;11.43;;;;;;;13.37;100.00;100296.94;5015235;28;20030;-82
2021/10/05 07:53:24;;;;;;;21.15;11.98;;;;;;;13.39;100.00;100289.72;5018815;28;20481;-84
2021/10/05 07:55:52;;;;;;;19.15;11.48;;;;;;;13.47;100.00;100289.13;5009565;28;20054;-84
2021/10/05 07:58:19;;;;;;;20.98;12.52;;;;;;;13.38;100.00;100266.88;5011746;28;20527;-85
2021/10/05 08:00:46;;;;;;;17.83;12.80;;;;;;;13.42;100.00;100263.03;5012643;28;20068;-81
2021/10/05 08:03:14;;;;;;;22.35;13.75;;;;;;;13.38;100.00;100256.31;5011858;28;20052;-82
2021/10/05 08:05:41;;;;;;;22.90;14.63;;;;;;;13.45;100.00;100246.09;5010320;28;20038;-81
2021/10/05 08:08:10;;;;;;;20.65;14.88;;;;;;;13.31;100.00;100243.66;5017260;28;20221;-84
2021/10/05 08:10:39;;;;;;;22.42;17.13;;;;;;;13.34;100.00;100232.88;4998270;28;20371;-86
2021/10/05 08:13:07;;;;;;;24.30;16.00;;;;;;;13.46;100.00;100225.75;5018596;28;20041;-83
2021/10/05 08:15:35;;;;;;;23.38;14.88;;;;;;;13.58;100.00;100224.81;5015042;28;20075;-82
2021/10/05 08:18:03;;;;;;;17.23;14.18;;;;;;;13.55;100.00;100206.53;5015124;28;20042;-87
2021/10/05 08:20:31;;;;;;;27.58;16.02;;;;;;;13.53;100.00;100200.53;5010342;28;20071;-80
2021/10/05 08:22:58;;;;;;;21.70;15.45;;;;;;;13.49;100.00;100199.09;5000376;28;20600;-85
2021/10/05 08:25:28;;;;;;;28.38;16.77;;;;;;;13.63;100.00;100197.06;5010312;28;20025;-81
2021/10/05 08:27:56;;;;;;;27.20;16.23;;;;;;;13.72;100.00;100192.00;5014085;28;20038;-87
2021/10/05 08:30:23;;;;;;;21.48;15.40;;;;;;;13.70;100.00;100186.84;4995794;28;20036;-82
2021/10/05 08:32:51;;;;;;;22.23;16.75;;;;;;;13.70;100.00;100178.91;5017021;28;20049;-82
2021/10/05 08:35:19;;;;;;;21.98;16.83;;;;;;;13.77;100.00;100180.09;5006326;28;20045;-85
2021/10/05 08:37:48;;;;;;;22.73;17.38;;;;;;;13.76;100.00;100177.56;5012203;28;20037;-83
2021/10/05 08:40:16;;;;;;;26.33;19.40;;;;;;;13.49;100.00;100177.94;4998357;28;20045;-82
2021/10/05 08:42:43;;;;;;;36.00;23.05;;;;;;;13.34;100.00;100180.81;5012757;28;20372;-83
2021/10/05 08:45:12;;;;;;;33.63;22.63;;;;;;;13.24;100.00;100179.00;4994508;28;20047;-88
2021/10/05 08:47:39;;;;;;;29.33;21.55;;;;;;;13.18;100.00;100172.34;5009849;28;20054;-82
2021/10/05 08:50:08;;;;;;;32.15;22.55;;;;;;;13.33;100.00;100170.38;5013194;28;20060;-81
2021/10/05 08:52:36;;;;;;;27.10;21.83;;;;;;;13.28;100.00;100164.56;5001759;28;20052;-81
2021/10/05 08:55:05;;;;;;;28.02;22.45;;;;;;;13.23;100.00;100164.09;5014486;28;20033;-82
2021/10/05 08:57:33;;;;;;;28.50;23.65;;;;;;;13.37;100.00;100159.44;4985145;28;20046;-82
2021/10/05 09:00:09;;;;;;;31.77;23.98;;;;;;;13.38;100.00;100157.63;5015697;28;20034;-82
2021/10/05 09:02:51;;;;;;;30.38;22.75;;;;;;;13.34;100.00;100158.84;4980277;28;20053;-80
2021/10/05 09:05:25;;;;;;;33.67;24.02;;;;;;;13.28;100.00;100152.19;4997001;28;20386;-83
2021/10/05 09:07:54;;;;;;;32.92;24.50;;;;;;;13.47;100.00;100150.78;5008150;28;20052;-83
2021/10/05 09:10:26;;;;;;;33.60;23.17;;;;;;;13.43;100.00;100155.47;5023322;28;20208;-88
2021/10/05 09:12:54;;;;;;;32.83;23.83;;;;;;;13.45;100.00;100150.88;5024561;28;20109;-82
2021/10/05 09:15:22;;;;;;;36.75;24.83;;;;;;;13.47;100.00;100162.19;5011933;28;20387;-84
2021/10/05 09:17:55;;;;;;;33.20;24.20;;;;;;;13.47;100.00;100164.00;5021726;28;20033;-83
2021/10/05 09:20:26;;;;;;;36.08;25.42;;;;;;;13.54;100.00;100163.38;5010083;28;20021;-83
2021/10/05 09:23:05;;;;;;;28.50;22.98;;;;;;;13.75;100.00;100167.97;4995194;28;20050;-83
2021/10/05 09:25:40;;;;;;;32.03;24.73;;;;;;;13.56;100.00;100161.47;5018421;28;20387;-85
2021/10/05 09:28:19;;;;;;;28.88;22.20;;;;;;;13.51;100.00;100158.38;5012476;28;20067;-88
2021/10/05 09:31:05;;;;;;;30.75;24.02;;;;;;;13.63;100.00;100159.19;4995844;28;20419;-80
2021/10/05 09:33:35;;;;;;;35.28;25.73;;;;;;;13.75;100.00;100142.34;5012193;28;20094;-87
2021/10/05 09:36:03;;;;;;;33.70;25.95;;;;;;;13.76;100.00;100140.53;5027258;28;20132;-83
2021/10/05 09:38:31;;;;;;;32.92;25.77;;;;;;;13.71;100.00;100151.47;5031281;28;20369;-82
2021/10/05 09:41:09;;;;;;;33.25;24.67;;;;;;;13.78;100.00;100149.19;5031808;28;20110;-86
2021/10/05 09:43:37;;;;;;;36.88;27.60;;;;;;;13.91;100.00;100149.88;5018552;28;20081;-85
2021/10/05 09:46:15;;;;;;;32.65;25.13;;;;;;;13.82;100.00;100135.59;5026549;28;20105;-91
2021/10/05 09:48:43;;;;;;;36.35;26.15;;;;;;;13.70;100.00;100117.22;5021257;28;20117;-83
2021/10/05 09:51:19;;;;;;;38.65;27.17;;;;;;;13.73;100.00;100120.44;5012063;28;20042;-82
2021/10/05 09:53:54;;;;;;;37.05;27.48;;;;;;;13.78;100.00;100122.72;5018267;28;20205;-81
2021/10/05 09:56:28;;;;;;;35.05;27.63;;;;;;;13.88;100.00;100126.34;5006385;28;20105;-80
2021/10/05 09:58:59;;;;;;;40.47;27.63;;;;;;;13.85;100.00;100123.91;4997031;28;20102;-81
2021/10/05 10:01:27;;;;;;;33.58;27.45;;;;;;;13.87;100.00;100112.25;5038808;28;20092;-84
2021/10/05 10:04:01;;;;;;;38.95;28.75;;;;;;;13.78;100.00;100110.38;5030595;28;20122;-84
2021/10/05 10:06:41;;;;;;;40.80;29.40;;;;;;;13.82;100.00;100095.91;5031657;28;20109;-86
2021/10/05 10:09:35;;;;;;;38.22;29.90;;;;;;;13.85;100.00;100094.81;5041868;28;20094;-81
2021/10/05 10:12:03;;;;;;;42.30;31.73;;;;;;;13.84;100.00;100090.50;5020732;28;20461;-84
2021/10/05 10:14:30;;;;;;;38.40;30.92;;;;;;;13.84;100.00;100093.16;5013706;28;20056;-82
2021/10/05 10:16:58;;;;;;;39.38;30.58;;;;;;;13.84;100.00;100087.84;5021674;28;20049;-81
2021/10/05 10:19:29;;;;;;;41.08;31.55;;;;;;;13.89;100.00;100081.22;5013625;28;20133;-83
2021/10/05 10:22:07;;;;;;;39.90;30.65;;;;;;;13.92;100.00;100080.97;5011134;28;20476;-82
2021/10/05 10:24:57;;;;;;;38.28;30.83;;;;;;;13.98;100.00;100082.28;4991201;28;20512;-83
2021/10/05 10:27:25;;;;;;;37.00;32.72;;;;;;;14.09;100.00;100082.22;5019514;28;20052;-84
2021/10/05 10:30:10;;;;;;;40.45;33.13;;;;;;;14.04;100.00;100071.16;5007916;28;20380;-86
2021/10/05 10:32:47;;;;;;;41.20;34.17;;;;;;;14.05;100.00;100069.38;5011004;28;20388;-87
2021/10/05 10:35:15;;;;;;;44.08;34.60;;;;;;;14.19;100.00;100074.38;5010874;28;20053;-84
2021/10/05 10:37:44;;;;;;;43.85;34.15;;;;;;;14.21;100.00;100069.78;5012073;28;20029;-83
2021/10/05 10:40:13;;;;;;;43.67;35.85;;;;;;;14.22;100.00;100063.53;4996247;28;20050;-81
2021/10/05 10:42:41;;;;;;;51.95;37.70;;;;;;;14.28;100.00;100070.97;5016444;28;20400;-82
2021/10/05 10:45:19;;;;;;;44.95;34.97;;;;;;;14.36;100.00;100072.97;4992539;28;20068;-80
2021/10/05 10:47:54;;;;;;;44.25;34.67;;;;;;;14.31;100.00;100065.41;4995107;28;20341;-83
2021/10/05 10:50:23;;;;;;;46.43;35.33;;;;;;;14.12;100.00;100052.84;5008837;28;20037;-83
2021/10/05 10:52:50;;;;;;;46.20;36.75;;;;;;;14.15;100.00;100049.97;5019485;28;20050;-87
2021/10/05 10:55:32;;;;;;;48.30;34.35;;;;;;;14.22;100.00;100044.16;4999203;28;20053;-86
2021/10/05 10:57:59;;;;;;;51.63;37.58;;;;;;;14.18;100.00;100039.13;5005954;28;20045;-86
2021/10/05 11:00:32;;;;;;;44.33;36.40;;;;;;;14.27;100.00;100034.84;5013601;28;20041;-87
2021/10/05 11:03:05;;;;;;;45.50;35.30;;;;;;;14.25;100.00;100041.25;5015869;28;20676;-86
2021/10/05 11:05:35;;;;;;;49.47;37.85;;;;;;;14.22;100.00;100044.16;5016220;28;20042;-82
2021/10/05 11:08:10;;;;;;;48.53;35.10;;;;;;;14.25;100.00;100028.84;5011981;28;20041;-84
2021/10/05 11:10:38;;;;;;;53.55;39.20;;;;;;;14.22;100.00;100029.09;5002439;28;20342;-81
2021/10/05 11:13:06;;;;;;;53.47;41.97;;;;;;;14.33;100.00;100020.28;5003523;28;20145;-90
2021/10/05 11:15:47;;;;;;;49.20;39.28;;;;;;;14.38;100.00;100023.38;5019416;28;20037;-86
2021/10/05 11:18:18;;;;;;;49.03;37.42;;;;;;;14.41;100.00;100012.53;5010524;28;20052;-87
2021/10/05 11:20:57;;;;;;;45.28;35.60;;;;;;;14.57;100.00;100017.38;5005922;28;20340;-87
2021/10/05 11:23:26;;;;;;;44.70;35.80;;;;;;;14.51;100.00;100020.56;5014804;28;20049;-82